createdAt,value
2023-05-25T08:28:48.727Z,144823.25
2023-05-25T08:33:52.240Z,144921.84
2023-05-25T08:38:55.645Z,144876.91
2023-05-25T08:44:06.092Z,144779.56
2023-05-25T08:49:10.925Z,144846.97
2023-05-25T08:54:14.908Z,144968.00
2023-05-25T08:59:32.012Z,145000.47
2023-05-25T09:04:35.801Z,145051.66
2023-05-25T09:09:40.193Z,145131.59
2023-05-25T09:14:47.950Z,145215.28
2023-05-25T09:19:51.932Z,145249.00
2023-05-25T09:24:55.609Z,144983.00
2023-05-25T09:30:01.856Z,144929.34
2023-05-25T09:35:10.583Z,145067.91
2023-05-25T09:40:15.441Z,145286.47
2023-05-25T09:45:24.406Z,145204.00
2023-05-25T09:50:30.762Z,144974.25
2023-05-25T09:55:51.574Z,145056.63
2023-05-25T10:00:58.481Z,145162.81
2023-05-25T10:06:02.529Z,145087.84
2023-05-25T10:11:07.001Z,145106.59
2023-05-25T10:16:17.628Z,145070.41
2023-05-25T10:21:23.856Z,144829.47
2023-05-25T10:26:28.911Z,145087.84
2023-05-25T10:31:37.589Z,145264.03
2023-05-25T10:36:42.001Z,144825.75
2023-05-25T10:41:45.481Z,145056.63
2023-05-25T10:46:50.680Z,145057.88
2023-05-25T10:51:59.429Z,145149.09
2023-05-25T10:57:09.759Z,145181.56
2023-05-25T11:02:16.421Z,145220.28
2023-05-25T11:07:22.831Z,144960.53
2023-05-25T11:12:27.617Z,145194.03
2023-05-25T11:17:36.436Z,145216.53
2023-05-25T11:22:40.391Z,145132.84
2023-05-25T11:27:47.376Z,145031.66
2023-05-25T11:32:52.297Z,145109.09
2023-05-25T11:37:55.685Z,145249.00
2023-05-25T11:43:00.832Z,144973.00
2023-05-25T11:48:14.114Z,145307.72
2023-05-25T11:53:19.675Z,145155.31
2023-05-25T11:58:26.684Z,145225.25
2023-05-25T12:03:32.861Z,145102.88
2023-05-25T12:08:38.687Z,144874.41
2023-05-25T12:13:44.383Z,144772.09
2023-05-25T12:18:50.812Z,144659.84
2023-05-25T12:23:54.811Z,144737.16
2023-05-25T12:29:03.046Z,144870.69
2023-05-25T12:34:08.949Z,144765.88
2023-05-25T12:39:13.532Z,144644.91
2023-05-25T12:44:17.712Z,144477.84
2023-05-25T12:49:29.716Z,144667.34
2023-05-25T12:54:41.043Z,144750.88
2023-05-25T12:59:45.127Z,144851.94
2023-05-25T13:04:49.947Z,144929.34
2023-05-25T13:09:54.034Z,145061.63
2023-05-25T13:14:57.599Z,145064.16
2023-05-25T13:20:02.440Z,144890.59
2023-05-25T13:25:09.295Z,145012.97
2023-05-25T13:30:13.263Z,144975.47
2023-05-25T13:35:23.884Z,144915.56
2023-05-25T13:40:27.716Z,145032.91
2023-05-25T13:45:31.486Z,145000.47
2023-05-25T13:50:37.062Z,145092.88
2023-05-25T13:55:40.912Z,145265.28
2023-05-25T14:00:44.619Z,145299.00
2023-05-25T14:05:49.972Z,145054.16
2023-05-25T14:10:53.531Z,145338.97
2023-05-25T14:15:57.173Z,145262.78
2023-05-25T14:21:02.231Z,145305.22
2023-05-25T14:26:05.821Z,145347.69
2023-05-25T14:31:09.318Z,145333.97
2023-05-25T14:36:14.283Z,145170.28
2023-05-25T14:41:17.781Z,145056.63
2023-05-25T14:46:23.478Z,144860.66
2023-05-25T14:51:28.810Z,144953.06
2023-05-25T14:56:32.648Z,144849.47
2023-05-25T15:01:36.179Z,144870.69
2023-05-25T15:06:42.319Z,144777.06
2023-05-25T15:11:49.426Z,144831.97
2023-05-25T15:16:52.820Z,144752.16
2023-05-25T15:21:57.703Z,144722.19
2023-05-25T15:27:04.072Z,144710.97
2023-05-25T15:32:19.128Z,144740.91
2023-05-25T15:37:24.481Z,144722.19
2023-05-25T15:42:33.989Z,144851.94
2023-05-25T15:47:44.287Z,144908.09
2023-05-25T15:52:51.778Z,144900.63
2023-05-25T15:57:57.175Z,145009.22
2023-05-25T16:03:06.377Z,144871.91
2023-05-25T16:08:31.624Z,144851.94
2023-05-25T16:13:35.099Z,144885.63
2023-05-25T16:21:04.024Z,144868.19
2023-05-25T16:24:10.206Z,144849.47
2023-05-25T16:29:13.882Z,144769.59
2023-05-25T16:34:17.565Z,144652.38
2023-05-25T16:39:23.686Z,144657.34
2023-05-25T16:44:27.205Z,144602.47
2023-05-25T16:49:30.877Z,144580.03
2023-05-25T16:54:35.819Z,144495.25
2023-05-25T16:59:39.786Z,144477.84
2023-05-25T17:04:43.238Z,144459.13
2023-05-25T17:09:48.107Z,144441.72
2023-05-25T17:14:55.492Z,144452.91
2023-05-25T17:20:21.878Z,144442.97
2023-05-25T17:25:24.618Z,144414.31
2023-05-25T17:30:30.941Z,144419.28
2023-05-25T17:35:34.443Z,144479.09
2023-05-25T17:40:39.399Z,144470.38
2023-05-25T17:45:43.561Z,144400.56
2023-05-25T17:50:50.332Z,144353.22
2023-05-25T17:55:55.205Z,144303.44
2023-05-25T18:00:58.949Z,144320.84
2023-05-25T18:06:02.675Z,144303.44
2023-05-25T18:11:07.784Z,144206.28
2023-05-25T18:16:15.751Z,144162.72
2023-05-25T18:21:24.524Z,144121.63
2023-05-25T18:26:31.819Z,144097.97
2023-05-25T18:31:35.325Z,144053.19
2023-05-25T18:36:39.056Z,144043.25
2023-05-25T18:41:44.072Z,144040.72
2023-05-25T18:46:50.202Z,144000.91
2023-05-25T18:51:53.719Z,143978.50
2023-05-25T18:56:58.773Z,143938.72
2023-05-25T19:02:02.572Z,143902.66
2023-05-25T19:07:08.876Z,143872.81
2023-05-25T19:12:15.376Z,143820.59
2023-05-25T19:17:28.079Z,143770.84
2023-05-25T19:22:34.815Z,143743.47
2023-05-25T19:27:40.047Z,143708.69
2023-05-25T19:32:43.935Z,143676.38
2023-05-25T19:37:47.693Z,143641.56
2023-05-25T19:42:53.368Z,143611.72
2023-05-25T19:48:08.071Z,143595.59
2023-05-25T19:53:12.191Z,143564.56
2023-05-25T19:58:17.450Z,143535.97
2023-05-25T20:03:21.956Z,143518.56
2023-05-25T20:08:28.574Z,143490.00
2023-05-25T20:13:33.934Z,143454.00
2023-05-25T20:18:37.833Z,143417.97
2023-05-25T20:23:41.301Z,143398.13
2023-05-25T20:28:49.078Z,143349.69
2023-05-25T20:33:55.946Z,143319.91
2023-05-25T20:39:00.447Z,143293.84
2023-05-25T20:44:06.631Z,143273.97
2023-05-25T20:49:11.217Z,143249.16
2023-05-25T20:54:15.424Z,143224.38
2023-05-25T20:59:23.577Z,143199.53
2023-05-25T21:04:31.645Z,143180.94
2023-05-25T21:09:36.006Z,143161.06
2023-05-25T21:14:41.076Z,143142.47
2023-05-25T21:19:44.646Z,143136.25
2023-05-25T21:24:50.580Z,143113.94
